Time;durP1;ratioP1;P1;durP2;ratioP2;P2;SDS_P1;SDS_P2;PMS_P1;PMS_P2;Temp;Humidity;BMP_temperature;BMP_pressure;BME280_temperature;BME280_humidity;BME280_pressure;Samples;Min_cycle;Max_cycle;Signal;HPM_P1;HPM_P2
2022/06/15 00:01:31;;;;;;;0.60;0.60;;;16.30;99.90;;;;;;5113625;28;20201;-58
2022/06/15 00:04:00;;;;;;;0.73;0.55;;;16.30;99.90;;;;;;5114677;28;20185;-57
2022/06/15 00:06:29;;;;;;;0.73;0.70;;;16.30;99.90;;;;;;5113243;28;20197;-57
2022/06/15 00:08:57;;;;;;;0.50;0.47;;;16.30;99.90;;;;;;5114544;28;20176;-57
2022/06/15 00:11:30;;;;;;;1.80;1.00;;;16.20;99.90;;;;;;5114537;28;20172;-57
2022/06/15 00:14:00;;;;;;;0.55;0.55;;;16.20;99.90;;;;;;5114754;28;20245;-57
2022/06/15 00:16:26;;;;;;;0.60;0.60;;;16.20;99.90;;;;;;5114546;28;20543;-57
2022/06/15 00:18:52;;;;;;;0.57;0.57;;;16.20;99.90;;;;;;5114461;28;20618;-57
2022/06/15 00:21:19;;;;;;;0.52;0.52;;;16.10;99.90;;;;;;5114330;28;20178;-58
2022/06/15 00:23:45;;;;;;;0.50;0.50;;;16.00;99.90;;;;;;5114780;28;20523;-57
2022/06/15 00:26:13;;;;;;;0.52;0.52;;;16.00;99.90;;;;;;5113080;28;20251;-58
2022/06/15 00:28:40;;;;;;;0.55;0.55;;;16.10;99.90;;;;;;5114235;28;20201;-57
2022/06/15 00:31:06;;;;;;;0.60;0.60;;;16.10;99.90;;;;;;5113036;28;20170;-57
2022/06/15 00:33:32;;;;;;;0.80;0.55;;;16.10;99.90;;;;;;5114197;28;20173;-58
2022/06/15 00:36:01;;;;;;;0.50;0.50;;;16.00;99.90;;;;;;5112793;28;20528;-58
2022/06/15 00:38:31;;;;;;;0.40;0.40;;;16.00;99.90;;;;;;5114353;28;20182;-58
2022/06/15 00:40:58;;;;;;;0.70;0.70;;;16.00;99.90;;;;;;5114255;28;20686;-58
2022/06/15 00:43:41;;;;;;;1.17;0.82;;;16.00;99.90;;;;;;5114012;28;20618;-57
2022/06/15 00:46:33;;;;;;;1.40;1.20;;;15.90;99.90;;;;;;5113958;28;20230;-58
2022/06/15 00:49:06;;;;;;;1.75;0.70;;;15.90;99.90;;;;;;5113933;28;20218;-58
2022/06/15 00:51:33;;;;;;;0.60;0.60;;;15.80;99.90;;;;;;5114079;28;20169;-57
2022/06/15 00:53:59;;;;;;;1.00;0.90;;;15.80;99.90;;;;;;5114190;28;20180;-58
2022/06/15 00:56:27;;;;;;;0.60;0.60;;;15.70;99.90;;;;;;5113883;28;20200;-58
2022/06/15 00:58:57;;;;;;;0.68;0.68;;;15.70;99.90;;;;;;5113717;28;20178;-57
2022/06/15 01:01:23;;;;;;;1.10;1.02;;;15.70;99.90;;;;;;5113823;28;20161;-58
2022/06/15 01:03:52;;;;;;;0.73;0.73;;;15.60;99.90;;;;;;5112730;28;20180;-57
2022/06/15 01:06:51;;;;;;;1.00;0.90;;;15.60;99.90;;;;;;5113916;28;20188;-58
2022/06/15 01:09:23;;;;;;;1.80;0.70;;;15.60;99.90;;;;;;5113477;28;20184;-58
2022/06/15 01:11:49;;;;;;;0.55;0.52;;;15.60;99.90;;;;;;5113807;28;20174;-57
2022/06/15 01:14:23;;;;;;;0.80;0.63;;;15.60;99.90;;;;;;5112304;28;20179;-58
2022/06/15 01:17:04;;;;;;;0.90;0.90;;;15.50;99.90;;;;;;5113668;28;20172;-58
2022/06/15 01:19:57;;;;;;;0.70;0.70;;;15.50;99.90;;;;;;5113608;28;20180;-58
2022/06/15 01:22:28;;;;;;;0.85;0.85;;;15.60;99.90;;;;;;5113640;28;20189;-57
2022/06/15 01:25:29;;;;;;;1.02;0.90;;;15.50;99.90;;;;;;5113752;28;20240;-58
2022/06/15 01:28:25;;;;;;;0.93;0.77;;;15.60;99.90;;;;;;5110039;28;20572;-58
2022/06/15 01:31:15;;;;;;;0.95;0.70;;;15.50;99.90;;;;;;5113553;28;20252;-57
2022/06/15 01:34:15;;;;;;;0.98;0.80;;;15.50;99.90;;;;;;5112213;28;20222;-58
2022/06/15 01:37:02;;;;;;;0.80;0.80;;;15.50;99.90;;;;;;5102479;28;20264;-57
2022/06/15 01:39:32;;;;;;;1.02;0.90;;;15.50;99.90;;;;;;5113590;28;20196;-57
2022/06/15 01:42:11;;;;;;;1.02;0.93;;;15.50;99.90;;;;;;5113336;28;20541;-57
2022/06/15 01:44:44;;;;;;;0.85;0.82;;;15.50;99.90;;;;;;5113437;28;20196;-57
2022/06/15 01:47:13;;;;;;;1.17;0.95;;;15.40;99.90;;;;;;5113414;28;20217;-57
2022/06/15 01:50:02;;;;;;;0.93;0.80;;;15.40;99.90;;;;;;5113476;28;20165;-58
2022/06/15 01:52:33;;;;;;;1.08;1.02;;;15.40;99.90;;;;;;5113460;28;20171;-58
2022/06/15 01:55:08;;;;;;;0.63;0.63;;;15.40;99.90;;;;;;5113343;28;20181;-57
2022/06/15 01:57:37;;;;;;;0.60;0.60;;;15.40;99.90;;;;;;5113544;28;20665;-58
2022/06/15 02:00:12;;;;;;;0.70;0.70;;;15.30;99.90;;;;;;5113367;28;20173;-57
2022/06/15 02:02:57;;;;;;;0.68;0.68;;;15.30;99.90;;;;;;5113113;28;20169;-57
2022/06/15 02:05:25;;;;;;;0.82;0.82;;;15.30;99.90;;;;;;5113111;28;20194;-58
2022/06/15 02:08:09;;;;;;;0.77;0.77;;;15.30;99.90;;;;;;5112955;28;20201;-57
2022/06/15 02:10:51;;;;;;;1.02;0.95;;;15.20;99.90;;;;;;5113174;28;20252;-58
2022/06/15 02:13:29;;;;;;;1.05;0.95;;;15.10;99.90;;;;;;5113140;28;20578;-57
2022/06/15 02:16:02;;;;;;;1.08;0.98;;;15.10;99.90;;;;;;5112136;28;20170;-57
2022/06/15 02:18:32;;;;;;;0.60;0.60;;;15.10;99.90;;;;;;5113373;28;20181;-57
2022/06/15 02:21:03;;;;;;;0.80;0.80;;;15.10;99.90;;;;;;5115007;28;20524;-57
2022/06/15 02:23:32;;;;;;;1.52;0.90;;;15.00;99.90;;;;;;5116841;28;20252;-58
2022/06/15 02:25:58;;;;;;;1.27;1.00;;;15.00;99.90;;;;;;5115517;28;20198;-57
2022/06/15 02:28:29;;;;;;;0.70;0.70;;;15.00;99.90;;;;;;5116400;28;20721;-57
2022/06/15 02:30:55;;;;;;;1.20;0.88;;;15.00;99.90;;;;;;5116846;28;20622;-57
2022/06/15 02:33:27;;;;;;;0.80;0.80;;;14.90;99.90;;;;;;5116429;28;20196;-57
2022/06/15 02:35:54;;;;;;;1.38;1.00;;;14.90;99.90;;;;;;5116754;28;20244;-57
2022/06/15 02:38:21;;;;;;;1.20;1.00;;;14.90;99.90;;;;;;5116705;28;20309;-57
2022/06/15 02:40:47;;;;;;;2.85;1.40;;;14.80;99.90;;;;;;5115079;28;20207;-57
2022/06/15 02:43:17;;;;;;;0.88;0.80;;;14.80;99.90;;;;;;5116176;28;20205;-57
2022/06/15 02:45:44;;;;;;;1.65;0.90;;;14.80;99.90;;;;;;5116544;28;20247;-57
2022/06/15 02:48:10;;;;;;;0.80;0.80;;;14.80;99.90;;;;;;5116296;28;20299;-57
2022/06/15 02:50:40;;;;;;;1.27;0.90;;;14.70;99.90;;;;;;5116258;28;20177;-57
2022/06/15 02:53:13;;;;;;;1.05;1.00;;;14.70;99.90;;;;;;5116132;28;20166;-57
2022/06/15 02:55:40;;;;;;;1.20;1.10;;;14.70;99.90;;;;;;5116035;28;20292;-57
2022/06/15 02:58:10;;;;;;;1.38;1.10;;;14.80;99.90;;;;;;5116223;28;20180;-57
2022/06/15 03:00:37;;;;;;;1.50;1.40;;;14.80;99.90;;;;;;5116182;28;20223;-57
2022/06/15 03:03:04;;;;;;;0.98;0.88;;;14.80;99.90;;;;;;5116056;28;20238;-57
2022/06/15 03:05:29;;;;;;;1.20;0.90;;;14.70;99.90;;;;;;5115790;28;20193;-57
2022/06/15 03:07:55;;;;;;;1.10;0.80;;;14.70;99.90;;;;;;5115930;28;20232;-57
2022/06/15 03:10:21;;;;;;;1.30;1.10;;;14.60;99.90;;;;;;5116021;28;20199;-57
2022/06/15 03:12:46;;;;;;;1.10;0.93;;;14.60;99.90;;;;;;5115819;28;20173;-57
2022/06/15 03:15:12;;;;;;;0.85;0.85;;;14.60;99.90;;;;;;5114972;28;20177;-57
2022/06/15 03:17:38;;;;;;;1.52;1.40;;;14.50;99.90;;;;;;5115713;28;20184;-57
2022/06/15 03:20:04;;;;;;;1.05;0.85;;;14.50;99.90;;;;;;5115629;28;20676;-57
2022/06/15 03:22:32;;;;;;;0.70;0.70;;;14.50;99.90;;;;;;5115440;28;20178;-57
2022/06/15 03:24:58;;;;;;;1.23;0.88;;;14.50;99.90;;;;;;5115484;28;20706;-57
2022/06/15 03:27:24;;;;;;;1.05;0.93;;;14.50;99.90;;;;;;5114223;28;20220;-57
2022/06/15 03:29:50;;;;;;;0.70;0.70;;;14.40;99.90;;;;;;5115527;28;20254;-57
2022/06/15 03:32:17;;;;;;;0.88;0.82;;;14.40;99.90;;;;;;5114176;28;20631;-57
2022/06/15 03:34:43;;;;;;;2.03;1.00;;;14.30;99.90;;;;;;5115353;28;20172;-57
2022/06/15 03:37:09;;;;;;;0.98;0.95;;;14.40;99.90;;;;;;5114064;28;20181;-57
2022/06/15 03:39:36;;;;;;;1.02;0.70;;;14.30;99.90;;;;;;5113975;28;20182;-57
2022/06/15 03:42:14;;;;;;;0.77;0.68;;;14.30;99.90;;;;;;5115304;28;20260;-57
2022/06/15 03:44:41;;;;;;;0.98;0.98;;;14.30;99.90;;;;;;5113980;28;20630;-58
2022/06/15 03:47:16;;;;;;;0.88;0.88;;;14.20;99.90;;;;;;5115020;28;20540;-56
2022/06/15 03:49:50;;;;;;;2.13;0.90;;;14.30;99.90;;;;;;5114923;28;20184;-57
2022/06/15 03:52:18;;;;;;;1.50;0.85;;;14.30;99.90;;;;;;5115211;28;20166;-57
2022/06/15 03:54:44;;;;;;;1.27;0.90;;;14.30;99.90;;;;;;5115034;28;20173;-57
2022/06/15 03:57:13;;;;;;;1.10;1.00;;;14.20;99.90;;;;;;5114932;28;20177;-57
2022/06/15 03:59:39;;;;;;;0.80;0.80;;;14.30;99.90;;;;;;5114847;28;20166;-57
2022/06/15 04:02:05;;;;;;;0.98;0.80;;;14.30;99.90;;;;;;5113454;28;20169;-57
2022/06/15 04:04:31;;;;;;;0.95;0.90;;;14.20;99.90;;;;;;5114656;28;20174;-57
2022/06/15 04:06:59;;;;;;;1.00;0.93;;;14.20;99.90;;;;;;5113257;28;20712;-57
2022/06/15 04:09:25;;;;;;;1.42;1.30;;;14.20;99.90;;;;;;5114928;28;20597;-57
2022/06/15 04:12:08;;;;;;;1.10;1.00;;;14.30;99.90;;;;;;5113464;28;20634;-57
2022/06/15 04:14:35;;;;;;;1.40;1.20;;;14.30;99.90;;;;;;5113346;28;20169;-57
2022/06/15 04:17:01;;;;;;;1.08;0.98;;;14.30;99.90;;;;;;5113297;28;20185;-57
2022/06/15 04:19:30;;;;;;;0.80;0.80;;;14.30;99.90;;;;;;5114389;28;20522;-57
2022/06/15 04:21:56;;;;;;;0.93;0.90;;;14.40;99.90;;;;;;5114567;28;20177;-57
2022/06/15 04:24:25;;;;;;;0.73;0.73;;;14.30;99.90;;;;;;5114489;28;20181;-57
2022/06/15 04:26:51;;;;;;;1.52;1.10;;;14.40;99.90;;;;;;5114130;28;20165;-57
2022/06/15 04:29:19;;;;;;;1.30;1.20;;;14.40;99.90;;;;;;5114225;28;20184;-57
2022/06/15 04:31:44;;;;;;;0.80;0.75;;;14.40;99.90;;;;;;5114216;28;20641;-57
2022/06/15 04:34:11;;;;;;;1.23;1.08;;;14.50;99.90;;;;;;5114376;28;20181;-57
2022/06/15 04:36:39;;;;;;;1.00;0.90;;;14.50;99.90;;;;;;5114116;28;20588;-57
2022/06/15 04:39:05;;;;;;;2.53;1.17;;;14.60;99.90;;;;;;5114098;28;20586;-57
2022/06/15 04:41:32;;;;;;;1.00;0.90;;;14.60;99.90;;;;;;5112752;28;20207;-57
2022/06/15 04:43:59;;;;;;;0.82;0.57;;;14.60;99.90;;;;;;5112379;28;20222;-57
2022/06/15 04:46:24;;;;;;;0.80;0.80;;;14.60;99.90;;;;;;5114203;28;20173;-55
2022/06/15 04:48:50;;;;;;;0.75;0.73;;;14.80;99.90;;;;;;5112658;28;20557;-57
2022/06/15 04:51:23;;;;;;;1.27;1.17;;;14.90;99.90;;;;;;5114175;28;20226;-57
2022/06/15 04:53:50;;;;;;;0.52;0.52;;;15.00;99.90;;;;;;5114089;28;20173;-57
2022/06/15 04:56:17;;;;;;;1.20;1.10;;;15.00;99.90;;;;;;5113849;28;20194;-57
2022/06/15 04:58:43;;;;;;;0.68;0.60;;;15.10;99.90;;;;;;5113797;28;20184;-58
2022/06/15 05:01:11;;;;;;;0.98;0.90;;;15.20;99.90;;;;;;5113147;28;20246;-59
2022/06/15 05:03:37;;;;;;;1.00;0.70;;;15.20;99.90;;;;;;5112888;28;20221;-58
2022/06/15 05:06:10;;;;;;;0.85;0.82;;;15.20;99.90;;;;;;5113672;28;20192;-58
2022/06/15 05:08:35;;;;;;;0.82;0.70;;;15.30;99.90;;;;;;5113640;28;20215;-58
2022/06/15 05:11:01;;;;;;;1.40;0.80;;;15.50;99.90;;;;;;5113596;28;20169;-58
2022/06/15 05:13:27;;;;;;;0.60;0.60;;;15.50;99.90;;;;;;5112598;28;20553;-58
2022/06/15 05:15:53;;;;;;;0.93;0.90;;;15.40;99.90;;;;;;5113802;28;20203;-58
2022/06/15 05:18:19;;;;;;;1.52;1.23;;;15.50;99.90;;;;;;5113719;28;20690;-58
2022/06/15 05:20:44;;;;;;;1.02;0.88;;;15.60;99.90;;;;;;5113620;28;20230;-58
2022/06/15 05:23:15;;;;;;;1.08;0.85;;;15.80;99.90;;;;;;5113848;28;20638;-58
2022/06/15 05:25:41;;;;;;;0.98;0.85;;;15.80;99.90;;;;;;5113429;28;20650;-58
2022/06/15 05:28:08;;;;;;;0.90;0.85;;;15.90;99.90;;;;;;5113596;28;20652;-58
2022/06/15 05:30:34;;;;;;;0.68;0.68;;;16.00;99.90;;;;;;5112300;28;20564;-59
2022/06/15 05:33:00;;;;;;;0.85;0.82;;;16.20;99.90;;;;;;5112311;28;20639;-58
2022/06/15 05:35:26;;;;;;;0.95;0.70;;;16.20;99.90;;;;;;5113214;28;20193;-58
2022/06/15 05:37:51;;;;;;;0.77;0.77;;;16.30;99.90;;;;;;5113447;28;20177;-58
2022/06/15 05:40:17;;;;;;;1.10;0.93;;;16.30;99.90;;;;;;5113362;28;20170;-58
2022/06/15 05:42:43;;;;;;;0.75;0.75;;;16.30;99.90;;;;;;5112176;28;20170;-58
2022/06/15 05:45:09;;;;;;;0.98;0.88;;;16.50;99.90;;;;;;5112124;28;20655;-58
2022/06/15 05:47:34;;;;;;;0.93;0.80;;;16.50;99.90;;;;;;5113251;28;20698;-59
2022/06/15 05:50:00;;;;;;;1.00;0.90;;;16.70;99.90;;;;;;5112414;28;20197;-59
2022/06/15 05:52:26;;;;;;;0.77;0.73;;;16.70;99.90;;;;;;5113357;28;20166;-58
2022/06/15 05:54:51;;;;;;;0.88;0.88;;;16.80;99.90;;;;;;5114495;28;20181;-59
2022/06/15 05:57:21;;;;;;;0.73;0.68;;;16.90;99.90;;;;;;5117304;28;20181;-59
2022/06/15 05:59:48;;;;;;;1.27;1.00;;;17.00;99.90;;;;;;5117285;28;20176;-59
2022/06/15 06:02:16;;;;;;;1.00;0.95;;;17.10;99.90;;;;;;5115906;28;20177;-58
2022/06/15 06:04:42;;;;;;;0.80;0.77;;;17.30;99.90;;;;;;5117131;27;20245;-58
2022/06/15 06:07:10;;;;;;;1.67;0.93;;;17.40;99.90;;;;;;5116966;28;20216;-59
2022/06/15 06:09:35;;;;;;;0.70;0.70;;;17.40;99.90;;;;;;5115769;28;20226;-59
2022/06/15 06:12:01;;;;;;;1.25;0.98;;;17.70;99.90;;;;;;5117213;28;20169;-58
2022/06/15 06:14:27;;;;;;;1.13;0.75;;;17.60;99.90;;;;;;5116984;28;20256;-58
2022/06/15 06:16:53;;;;;;;0.80;0.80;;;17.80;99.90;;;;;;5116815;28;20172;-58
2022/06/15 06:19:18;;;;;;;0.52;0.50;;;17.80;99.90;;;;;;5116836;28;20215;-59
2022/06/15 06:21:44;;;;;;;0.60;0.60;;;18.10;99.90;;;;;;5116749;28;20205;-58
2022/06/15 06:24:11;;;;;;;0.60;0.60;;;18.20;99.90;;;;;;5116639;28;20600;-59
2022/06/15 06:26:37;;;;;;;0.68;0.68;;;18.20;99.90;;;;;;5116824;28;20238;-59
2022/06/15 06:29:04;;;;;;;1.27;1.02;;;18.30;99.90;;;;;;5116726;28;20553;-57
2022/06/15 06:31:29;;;;;;;2.53;1.10;;;18.50;99.90;;;;;;5115460;28;20184;-59
2022/06/15 06:33:56;;;;;;;1.20;1.10;;;18.40;99.90;;;;;;5116610;28;20169;-59
2022/06/15 06:36:33;;;;;;;0.93;0.90;;;18.50;99.90;;;;;;5116192;28;20185;-59
2022/06/15 06:39:00;;;;;;;1.25;0.90;;;18.50;99.90;;;;;;5116617;28;20173;-58
2022/06/15 06:41:28;;;;;;;1.27;1.00;;;18.70;99.90;;;;;;5116352;28;20711;-59
2022/06/15 06:43:55;;;;;;;1.17;0.77;;;18.90;99.90;;;;;;5116494;28;20268;-58
2022/06/15 06:46:21;;;;;;;0.98;0.90;;;19.00;99.90;;;;;;5116238;28;20177;-60
2022/06/15 06:48:47;;;;;;;1.48;0.95;;;19.10;99.90;;;;;;5114888;28;20562;-59
2022/06/15 06:51:13;;;;;;;1.15;1.05;;;19.40;99.90;;;;;;5116424;28;20230;-59
2022/06/15 06:53:39;;;;;;;0.68;0.65;;;19.50;99.90;;;;;;5116345;28;20169;-58
2022/06/15 06:56:08;;;;;;;0.80;0.70;;;19.20;99.90;;;;;;5115002;28;20639;-59
2022/06/15 06:58:34;;;;;;;0.60;0.60;;;19.50;99.90;;;;;;5116193;28;20177;-59
2022/06/15 07:01:01;;;;;;;0.70;0.70;;;19.40;99.90;;;;;;5116046;28;20174;-59
2022/06/15 07:03:27;;;;;;;1.23;1.02;;;19.70;99.90;;;;;;5114641;28;20181;-59
2022/06/15 07:06:03;;;;;;;1.08;0.90;;;19.80;99.90;;;;;;5114539;28;20173;-58
2022/06/15 07:08:29;;;;;;;1.05;0.88;;;20.00;99.90;;;;;;5115799;28;20208;-59
2022/06/15 07:10:55;;;;;;;1.20;1.00;;;19.80;99.90;;;;;;5115932;28;20173;-58
2022/06/15 07:13:21;;;;;;;1.00;0.85;;;20.00;99.90;;;;;;5115754;28;20185;-60
2022/06/15 07:15:47;;;;;;;0.75;0.70;;;20.20;99.90;;;;;;5114633;28;20173;-58
2022/06/15 07:18:12;;;;;;;0.70;0.70;;;20.40;99.90;;;;;;5115573;28;20185;-59
2022/06/15 07:20:38;;;;;;;0.90;0.70;;;20.60;99.80;;;;;;5115564;28;20191;-58
2022/06/15 07:23:04;;;;;;;0.60;0.60;;;20.80;99.90;;;;;;5115999;28;20173;-59
2022/06/15 07:25:30;;;;;;;0.38;0.38;;;20.80;99.90;;;;;;5115685;28;20200;-59
2022/06/15 07:27:55;;;;;;;0.73;0.73;;;20.90;99.90;;;;;;5114236;28;20229;-59
2022/06/15 07:30:24;;;;;;;1.15;0.70;;;20.90;99.90;;;;;;5115469;28;20530;-60
2022/06/15 07:32:50;;;;;;;1.13;0.85;;;20.80;99.60;;;;;;5113990;28;20180;-58
2022/06/15 07:35:25;;;;;;;1.15;0.85;;;20.80;99.90;;;;;;5115423;28;20209;-59
2022/06/15 07:37:52;;;;;;;0.60;0.60;;;20.60;99.90;;;;;;5115530;28;20177;-59
2022/06/15 07:40:20;;;;;;;0.60;0.60;;;20.80;99.80;;;;;;5115116;28;20217;-59
2022/06/15 07:42:47;;;;;;;0.95;0.85;;;20.90;99.90;;;;;;5115236;28;20261;-59
2022/06/15 07:45:16;;;;;;;0.60;0.60;;;21.10;99.10;;;;;;5115061;28;20181;-59
2022/06/15 07:50:26;;;;;;;0.63;0.60;;;21.80;98.50;;;;;;5115093;28;20192;-59
2022/06/15 07:52:53;;;;;;;0.45;0.45;;;21.80;98.40;;;;;;5115316;28;20169;-59
2022/06/15 07:55:25;;;;;;;1.30;0.90;;;21.90;98.50;;;;;;5113770;28;20188;-59
2022/06/15 07:57:51;;;;;;;0.50;0.50;;;21.90;97.90;;;;;;5114893;28;20173;-59
2022/06/15 08:00:18;;;;;;;0.50;0.50;;;22.10;97.70;;;;;;5115099;28;20634;-59
2022/06/15 08:02:43;;;;;;;0.30;0.30;;;22.10;97.70;;;;;;5115056;28;20306;-59
2022/06/15 08:05:10;;;;;;;0.75;0.75;;;22.20;98.00;;;;;;5113675;28;20602;-60
2022/06/15 08:07:36;;;;;;;0.68;0.60;;;22.10;97.50;;;;;;5114611;28;20213;-59
2022/06/15 08:10:04;;;;;;;0.63;0.40;;;22.30;97.60;;;;;;5114671;28;20218;-59
2022/06/15 08:12:30;;;;;;;0.60;0.40;;;22.30;96.70;;;;;;5114830;28;20191;-59
2022/06/15 08:15:00;;;;;;;0.50;0.50;;;22.40;96.50;;;;;;5113595;28;20628;-59
2022/06/15 08:17:34;;;;;;;1.95;0.50;;;22.50;96.70;;;;;;5112706;28;20280;-59
2022/06/15 08:20:14;;;;;;;0.98;0.80;;;22.40;95.30;;;;;;5114558;28;20229;-60
2022/06/15 08:22:43;;;;;;;0.60;0.60;;;22.60;96.80;;;;;;5114458;28;20178;-59
2022/06/15 08:25:13;;;;;;;0.38;0.35;;;22.80;95.60;;;;;;5114619;28;20169;-60
2022/06/15 08:27:39;;;;;;;0.50;0.43;;;22.70;94.90;;;;;;5114594;28;20197;-59
2022/06/15 08:30:10;;;;;;;0.57;0.57;;;22.60;95.60;;;;;;5114590;28;20222;-59
2022/06/15 08:32:36;;;;;;;1.23;0.70;;;22.40;95.40;;;;;;5113326;28;20173;-59
2022/06/15 08:35:03;;;;;;;0.70;0.60;;;22.50;95.40;;;;;;5114436;28;20171;-59
2022/06/15 08:37:28;;;;;;;0.30;0.30;;;22.40;95.60;;;;;;5113238;28;20185;-59
2022/06/15 08:39:54;;;;;;;0.40;0.40;;;22.40;96.00;;;;;;5114360;28;20260;-58
2022/06/15 08:42:42;;;;;;;0.65;0.45;;;22.60;96.10;;;;;;5114203;28;20646;-57
2022/06/15 08:45:25;;;;;;;0.40;0.40;;;22.90;96.50;;;;;;5114238;28;20220;-58
2022/06/15 08:47:56;;;;;;;0.70;0.70;;;23.00;95.70;;;;;;5114611;28;20193;-57
2022/06/15 08:50:29;;;;;;;0.60;0.60;;;23.10;95.00;;;;;;5114208;28;20549;-58
2022/06/15 08:53:07;;;;;;;1.67;0.57;;;23.40;94.60;;;;;;5113873;28;20169;-58
2022/06/15 08:55:42;;;;;;;0.47;0.47;;;23.30;94.00;;;;;;5113938;28;20177;-58
2022/06/15 08:58:14;;;;;;;0.73;0.73;;;23.40;94.80;;;;;;5113838;28;20251;-57
2022/06/15 09:00:43;;;;;;;1.55;0.50;;;23.40;94.20;;;;;;5112964;28;20510;-59
2022/06/15 09:03:36;;;;;;;0.38;0.38;;;23.30;94.50;;;;;;5113833;28;20172;-59
2022/06/15 09:06:22;;;;;;;0.45;0.45;;;23.70;94.30;;;;;;5113981;28;20161;-59
2022/06/15 09:09:12;;;;;;;0.30;0.30;;;23.70;93.60;;;;;;5113982;28;20213;-59
2022/06/15 09:15:19;;;;;;;0.55;0.55;;;23.90;94.50;;;;;;5114005;28;20542;-59
2022/06/15 09:17:48;;;;;;;0.60;0.60;;;23.90;93.60;;;;;;5113885;28;20176;-60
2022/06/15 09:20:20;;;;;;;0.75;0.50;;;23.80;92.70;;;;;;5113633;28;20157;-59
2022/06/15 09:22:56;;;;;;;0.88;0.60;;;24.00;93.90;;;;;;5113688;28;20177;-59
2022/06/15 09:25:35;;;;;;;0.88;0.68;;;23.90;92.50;;;;;;5113648;28;20165;-59
2022/06/15 09:28:30;;;;;;;0.38;0.38;;;23.80;92.70;;;;;;5113428;28;20324;-58
2022/06/15 09:31:02;;;;;;;0.75;0.70;;;24.10;93.30;;;;;;5116528;28;20173;-58
2022/06/15 09:33:37;;;;;;;0.40;0.40;;;23.90;93.00;;;;;;5116501;28;20178;-58
2022/06/15 09:36:11;;;;;;;0.43;0.43;;;24.20;93.50;;;;;;5117933;28;20234;-58
2022/06/15 09:38:38;;;;;;;0.57;0.57;;;24.30;92.20;;;;;;5117830;28;20177;-59
2022/06/15 09:41:39;;;;;;;0.50;0.50;;;24.60;92.40;;;;;;5099540;28;20290;-58
2022/06/15 09:44:22;;;;;;;1.02;0.98;;;24.70;92.90;;;;;;5114193;28;20196;-59
2022/06/15 09:46:54;;;;;;;0.50;0.50;;;24.40;92.50;;;;;;5117296;27;20238;-58
2022/06/15 09:50:17;;;;;;;0.70;0.70;;;24.50;92.40;;;;;;5117535;28;20169;-58
2022/06/15 09:53:04;;;;;;;0.60;0.50;;;24.50;91.50;;;;;;5054425;28;20262;-58
2022/06/15 09:55:38;;;;;;;0.50;0.50;;;24.70;92.20;;;;;;5054553;28;20652;-58
2022/06/15 09:58:07;;;;;;;0.50;0.50;;;24.80;91.30;;;;;;5096210;28;20194;-59
2022/06/15 10:00:35;;;;;;;0.60;0.43;;;25.00;92.50;;;;;;5116947;28;20256;-59
2022/06/15 10:03:05;;;;;;;0.50;0.50;;;25.10;91.50;;;;;;5117336;28;20170;-59
2022/06/15 10:05:39;;;;;;;0.60;0.60;;;25.30;91.40;;;;;;5117075;28;20682;-58
2022/06/15 10:08:10;;;;;;;0.50;0.47;;;25.20;90.40;;;;;;5115785;28;20215;-59
2022/06/15 10:10:43;;;;;;;0.75;0.50;;;25.30;90.90;;;;;;5117002;28;20169;-58
2022/06/15 10:13:15;;;;;;;0.82;0.40;;;25.40;91.10;;;;;;5116879;28;20173;-59
2022/06/15 10:15:40;;;;;;;0.73;0.50;;;25.40;91.20;;;;;;5116965;28;20169;-58
2022/06/15 10:18:46;;;;;;;0.60;0.60;;;25.30;90.30;;;;;;5116881;28;20648;-59
2022/06/15 10:21:14;;;;;;;0.60;0.60;;;25.30;91.10;;;;;;5116941;27;20676;-58
2022/06/15 10:24:05;;;;;;;0.95;0.63;;;25.50;91.50;;;;;;5116783;28;20573;-58
2022/06/15 10:26:43;;;;;;;0.77;0.55;;;25.80;91.00;;;;;;5088283;27;20185;-59
2022/06/15 10:29:15;;;;;;;0.65;0.65;;;25.40;89.90;;;;;;5116750;28;20196;-59
2022/06/15 10:31:57;;;;;;;0.70;0.65;;;24.90;90.20;;;;;;5115385;28;20200;-59
2022/06/15 10:34:27;;;;;;;0.70;0.70;;;24.90;91.40;;;;;;5116750;28;20173;-59
2022/06/15 10:36:56;;;;;;;0.47;0.40;;;24.80;90.90;;;;;;5116756;28;20258;-59
2022/06/15 10:39:30;;;;;;;0.60;0.50;;;24.90;91.30;;;;;;5116672;28;20207;-59
2022/06/15 10:42:16;;;;;;;0.50;0.50;;;24.90;91.20;;;;;;5115691;28;20164;-58
2022/06/15 10:45:07;;;;;;;0.75;0.60;;;25.10;90.20;;;;;;5116621;28;20161;-58
2022/06/15 10:47:36;;;;;;;0.52;0.52;;;25.10;88.20;;;;;;5107404;28;20644;-59
2022/06/15 10:50:07;;;;;;;1.23;0.60;;;25.20;89.50;;;;;;5116192;28;20204;-58
2022/06/15 10:52:37;;;;;;;0.40;0.40;;;25.20;90.30;;;;;;5116193;28;20525;-59
2022/06/15 11:03:39;;;;;;;1.02;0.80;;;25.70;90.60;;;;;;5116263;28;20246;-59
2022/06/15 11:06:05;;;;;;;0.65;0.65;;;25.90;90.10;;;;;;5115828;28;20581;-58
2022/06/15 11:08:34;;;;;;;1.13;0.80;;;25.90;89.90;;;;;;5114895;28;20213;-59
2022/06/15 11:11:26;;;;;;;0.70;0.70;;;26.30;90.20;;;;;;5115820;28;20622;-60
2022/06/15 11:14:23;;;;;;;0.88;0.60;;;26.30;88.90;;;;;;5116005;28;20185;-59
2022/06/15 11:19:38;;;;;;;0.70;0.70;;;26.10;88.80;;;;;;5115933;28;20189;-60
2022/06/15 11:22:14;;;;;;;0.70;0.70;;;25.90;87.40;;;;;;5115709;28;20180;-59
2022/06/15 11:25:20;;;;;;;0.57;0.57;;;26.00;89.60;;;;;;5115990;28;20168;-59
2022/06/15 11:27:51;;;;;;;0.75;0.70;;;26.30;89.30;;;;;;5052631;28;20607;-60
2022/06/15 11:30:29;;;;;;;0.60;0.60;;;26.20;87.40;;;;;;5105141;28;20188;-60
2022/06/15 11:33:07;;;;;;;0.95;0.77;;;26.30;89.50;;;;;;5115636;28;20634;-59
2022/06/15 11:36:03;;;;;;;0.40;0.40;;;26.20;89.50;;;;;;5115524;28;20176;-59
2022/06/15 11:38:47;;;;;;;0.70;0.70;;;26.60;90.00;;;;;;5115318;28;20177;-59
2022/06/15 11:41:32;;;;;;;0.40;0.40;;;26.40;88.50;;;;;;5115545;28;20195;-59
2022/06/15 11:44:00;;;;;;;0.43;0.43;;;26.00;88.60;;;;;;5115320;28;20675;-60
2022/06/15 11:46:52;;;;;;;0.50;0.50;;;25.80;89.00;;;;;;5115472;28;20581;-60
2022/06/15 11:49:50;;;;;;;0.52;0.52;;;25.90;88.50;;;;;;5115109;28;20212;-59
2022/06/15 11:52:39;;;;;;;0.60;0.60;;;26.00;88.10;;;;;;5115216;28;20254;-59
2022/06/15 11:55:31;;;;;;;1.58;0.73;;;26.20;88.40;;;;;;5114939;28;20165;-59
2022/06/15 11:58:25;;;;;;;0.45;0.45;;;26.20;86.50;;;;;;5115468;28;20176;-60
2022/06/15 12:00:54;;;;;;;0.50;0.50;;;26.50;89.30;;;;;;5114979;28;20231;-59
2022/06/15 12:03:23;;;;;;;1.67;0.50;;;26.20;87.90;;;;;;5114709;28;20722;-59
2022/06/15 12:06:00;;;;;;;0.60;0.60;;;26.20;87.80;;;;;;5114726;28;20222;-59
2022/06/15 12:08:41;;;;;;;0.60;0.60;;;26.10;89.20;;;;;;5114875;28;20284;-59
2022/06/15 12:14:39;;;;;;;0.52;0.52;;;26.60;87.30;;;;;;5114634;28;20219;-59
2022/06/15 12:17:33;;;;;;;0.43;0.43;;;26.60;86.80;;;;;;5115047;28;20165;-59
2022/06/15 12:20:18;;;;;;;0.77;0.73;;;26.50;87.60;;;;;;5114533;28;20645;-59
2022/06/15 12:22:58;;;;;;;0.40;0.40;;;26.00;87.00;;;;;;5114900;28;20177;-58
2022/06/15 12:25:45;;;;;;;0.98;0.68;;;26.20;88.30;;;;;;5113194;28;20534;-59
2022/06/15 12:28:57;;;;;;;0.57;0.57;;;26.20;85.90;;;;;;5114314;28;20295;-58
2022/06/15 12:34:55;;;;;;;0.82;0.82;;;26.30;88.30;;;;;;5034634;28;20194;-58
2022/06/15 12:37:31;;;;;;;1.25;0.60;;;26.50;87.70;;;;;;5112414;28;20189;-58
2022/06/15 12:40:18;;;;;;;1.00;0.70;;;26.40;85.10;;;;;;5114112;28;20251;-59
2022/06/15 12:42:48;;;;;;;0.55;0.55;;;26.60;86.80;;;;;;5114087;28;20649;-58
2022/06/15 12:45:20;;;;;;;0.98;0.60;;;26.70;86.90;;;;;;5113904;28;20173;-58
2022/06/15 12:47:55;;;;;;;0.73;0.63;;;26.80;86.70;;;;;;5114147;28;20204;-59
2022/06/15 12:50:42;;;;;;;0.47;0.32;;;26.90;87.50;;;;;;5114091;28;20671;-59
2022/06/15 12:53:23;;;;;;;0.52;0.52;;;27.00;85.60;;;;;;5113910;28;20172;-58
2022/06/15 12:55:58;;;;;;;0.38;0.38;;;27.10;86.00;;;;;;5113920;28;20165;-58
2022/06/15 12:58:54;;;;;;;1.55;0.40;;;27.00;85.80;;;;;;5114093;28;20176;-58
2022/06/15 13:01:24;;;;;;;0.60;0.55;;;26.90;85.00;;;;;;5114048;28;20173;-58
2022/06/15 13:04:20;;;;;;;0.45;0.45;;;26.80;86.70;;;;;;5113285;28;20522;-58
2022/06/15 13:07:06;;;;;;;0.28;0.28;;;26.80;85.20;;;;;;5114095;28;20193;-58
2022/06/15 13:09:32;;;;;;;0.50;0.40;;;26.60;86.30;;;;;;5113612;28;20221;-58
2022/06/15 13:12:08;;;;;;;0.60;0.50;;;26.60;86.40;;;;;;5113760;28;20204;-58
2022/06/15 13:14:53;;;;;;;0.95;0.60;;;26.50;86.10;;;;;;5113961;28;20165;-58
2022/06/15 13:17:23;;;;;;;0.57;0.57;;;26.20;84.80;;;;;;5113783;28;20272;-58
2022/06/15 13:19:52;;;;;;;0.50;0.50;;;26.40;86.10;;;;;;5113712;28;20177;-58
2022/06/15 13:22:39;;;;;;;0.57;0.40;;;26.30;84.50;;;;;;5113721;28;20165;-58
2022/06/15 13:25:08;;;;;;;0.43;0.43;;;26.30;85.30;;;;;;5113870;28;20176;-58
2022/06/15 13:27:41;;;;;;;0.55;0.55;;;26.40;85.70;;;;;;5113643;28;20208;-59
2022/06/15 13:30:21;;;;;;;0.57;0.43;;;26.30;84.00;;;;;;5113605;28;20165;-58
2022/06/15 13:33:03;;;;;;;0.50;0.50;;;26.50;85.90;;;;;;5113532;28;20169;-58
2022/06/15 13:35:37;;;;;;;0.75;0.47;;;26.60;84.80;;;;;;5112368;28;20204;-58
2022/06/15 13:38:27;;;;;;;0.20;0.20;;;26.60;82.30;;;;;;5113646;28;20171;-58
2022/06/15 13:40:58;;;;;;;0.30;0.30;;;26.70;85.40;;;;;;5113547;28;20191;-58